Time;durP1;ratioP1;P1;durP2;ratioP2;P2;SDS_P1;SDS_P2;PMS_P1;PMS_P2;Temp;Humidity;BMP_temperature;BMP_pressure;BME280_temperature;BME280_humidity;BME280_pressure;Samples;Min_cycle;Max_cycle;Signal;HPM_P1;HPM_P2
2021/10/11 00:01:27;;;;;;;;;;;5.00;99.90;;;;;;5050760;28;19913;-67
2021/10/11 00:03:53;;;;;;;;;;;5.00;99.90;;;;;;5050330;28;19913;-67
2021/10/11 00:06:18;;;;;;;;;;;4.90;99.90;;;;;;5051044;28;19917;-67
2021/10/11 00:08:44;;;;;;;;;;;4.90;99.90;;;;;;5050680;28;20672;-66
2021/10/11 00:11:10;;;;;;;;;;;4.80;99.90;;;;;;5049489;28;19919;-67
2021/10/11 00:13:35;;;;;;;;;;;4.80;99.90;;;;;;5050178;28;19913;-67
2021/10/11 00:16:01;;;;;;;;;;;4.80;99.90;;;;;;5050444;28;19908;-67
2021/10/11 00:18:27;;;;;;;;;;;4.70;99.90;;;;;;5051042;28;19959;-66
2021/10/11 00:20:52;;;;;;;;;;;4.70;99.90;;;;;;5050913;28;20389;-67
2021/10/11 00:23:18;;;;;;;;;;;4.70;99.90;;;;;;5049975;28;19916;-67
2021/10/11 00:25:43;;;;;;;;;;;4.70;99.90;;;;;;5050026;28;20434;-67
2021/10/11 00:28:09;;;;;;;;;;;4.70;99.90;;;;;;5049340;28;19908;-67
2021/10/11 00:30:34;;;;;;;;;;;4.70;99.90;;;;;;5050900;28;19909;-67
2021/10/11 00:33:00;;;;;;;;;;;4.60;99.90;;;;;;5048773;28;19962;-67
2021/10/11 00:35:26;;;;;;;;;;;4.60;99.90;;;;;;5050828;28;19909;-67
2021/10/11 00:37:51;;;;;;;;;;;4.60;99.90;;;;;;5049817;28;19909;-67
2021/10/11 00:40:17;;;;;;;;;;;4.60;99.90;;;;;;5050723;28;19909;-66
2021/10/11 00:42:42;;;;;;;;;;;4.60;99.90;;;;;;5048343;28;19913;-67
2021/10/11 00:45:08;;;;;;;;;;;4.50;99.90;;;;;;5050532;28;20278;-67
2021/10/11 00:47:33;;;;;;;;;;;4.50;99.90;;;;;;5050289;28;20021;-67
2021/10/11 00:49:59;;;;;;;;;;;4.50;99.90;;;;;;5049952;28;19928;-67
2021/10/11 00:52:25;;;;;;;;;;;4.40;99.90;;;;;;5049150;28;19912;-67
2021/10/11 00:54:50;;;;;;;;;;;4.40;99.90;;;;;;5050526;28;19909;-67
2021/10/11 00:57:16;;;;;;;;;;;4.30;99.90;;;;;;5048662;28;19916;-66
2021/10/11 00:59:43;;;;;;;;;;;4.30;99.90;;;;;;5050317;28;19909;-67
2021/10/11 01:02:08;;;;;;;;;;;4.30;99.90;;;;;;5045757;28;19913;-67
2021/10/11 01:04:34;;;;;;;;;;;4.30;99.90;;;;;;5048439;28;20016;-67
2021/10/11 01:06:59;;;;;;;;;;;4.30;99.90;;;;;;5049390;28;19909;-67
2021/10/11 01:09:25;;;;;;;;;;;4.30;99.90;;;;;;5049762;28;20000;-67
2021/10/11 01:11:50;;;;;;;;;;;4.30;99.90;;;;;;5047554;28;20003;-66
2021/10/11 01:14:16;;;;;;;;;;;4.30;99.90;;;;;;5049518;28;19908;-66
2021/10/11 01:16:42;;;;;;;;;;;4.20;99.90;;;;;;5049188;28;19984;-66
2021/10/11 01:19:08;;;;;;;;;;;4.20;99.90;;;;;;5049252;28;19920;-66
2021/10/11 01:21:33;;;;;;;;;;;4.20;99.90;;;;;;5048351;28;19999;-67
2021/10/11 01:23:59;;;;;;;;;;;4.20;99.90;;;;;;5048111;28;19908;-67
2021/10/11 01:26:33;;;;;;;;;;;4.20;99.90;;;;;;5047931;28;19935;-66
2021/10/11 01:28:59;;;;;;;;;;;4.10;99.90;;;;;;5035496;28;19920;-67
2021/10/11 01:31:24;;;;;;;;;;;4.10;99.90;;;;;;5029373;28;19985;-67
2021/10/11 01:33:50;;;;;;;;;;;4.20;99.90;;;;;;5028801;28;19917;-67
2021/10/11 01:36:15;;;;;;;;;;;4.20;99.90;;;;;;5028702;28;20013;-67
2021/10/11 01:38:41;;;;;;;;;;;4.10;99.90;;;;;;5047732;28;19913;-66
2021/10/11 01:41:06;;;;;;;;;;;4.10;99.90;;;;;;5048287;28;20448;-67
2021/10/11 01:43:32;;;;;;;;;;;4.10;99.90;;;;;;5048121;28;19955;-67
2021/10/11 01:45:57;;;;;;;;;;;4.10;99.90;;;;;;5048892;28;19921;-67
2021/10/11 01:48:23;;;;;;;;;;;4.10;99.90;;;;;;5048965;28;20401;-67
2021/10/11 01:50:48;;;;;;;;;;;4.10;99.90;;;;;;5049020;28;19916;-67
2021/10/11 01:53:14;;;;;;;;;;;4.10;99.90;;;;;;5047832;28;19909;-67
2021/10/11 01:55:39;;;;;;;;;;;4.00;99.90;;;;;;5049260;28;19909;-67
2021/10/11 01:58:05;;;;;;;;;;;4.00;99.90;;;;;;5047199;28;19917;-66
2021/10/11 02:00:30;;;;;;;;;;;4.00;99.90;;;;;;5048392;28;19917;-67
2021/10/11 02:02:56;;;;;;;;;;;3.90;99.90;;;;;;5048170;28;19908;-66
2021/10/11 02:05:21;;;;;;;;;;;3.90;99.90;;;;;;5048931;28;20520;-66
2021/10/11 02:07:47;;;;;;;;;;;3.80;1.00;;;;;;5048388;28;19909;-66
2021/10/11 02:10:12;;;;;;;;;;;3.80;1.00;;;;;;5048993;28;19916;-66
2021/10/11 02:12:38;;;;;;;;;;;3.80;1.00;;;;;;5046092;28;19913;-66
2021/10/11 02:15:05;;;;;;;;;;;3.80;1.00;;;;;;5049124;28;19913;-66
2021/10/11 02:17:30;;;;;;;;;;;3.70;1.00;;;;;;5048734;28;19996;-66
2021/10/11 02:19:56;;;;;;;;;;;3.70;1.00;;;;;;5048857;28;20024;-66
2021/10/11 02:22:21;;;;;;;;;;;3.60;1.00;;;;;;5047034;28;20008;-67
2021/10/11 02:24:47;;;;;;;;;;;3.60;1.00;;;;;;5048924;28;19912;-67
2021/10/11 02:27:12;;;;;;;;;;;3.60;99.90;;;;;;5047361;28;19909;-67
2021/10/11 02:29:38;;;;;;;;;;;3.50;1.00;;;;;;5029571;28;19910;-68
2021/10/11 02:32:04;;;;;;;;;;;3.50;1.00;;;;;;5030671;28;20325;-68
2021/10/11 02:34:29;;;;;;;;;;;3.40;1.00;;;;;;5032809;28;20392;-67
2021/10/11 02:36:54;;;;;;;;;;;3.30;1.00;;;;;;5036623;28;19913;-67
2021/10/11 02:39:20;;;;;;;;;;;3.30;1.00;;;;;;5053269;28;20234;-66
2021/10/11 02:41:45;;;;;;;;;;;3.40;1.00;;;;;;5049327;28;19923;-66
2021/10/11 02:44:11;;;;;;;;;;;3.30;1.00;;;;;;5052625;28;20019;-66
2021/10/11 02:46:36;;;;;;;;;;;3.20;1.00;;;;;;5051787;28;20373;-66
2021/10/11 02:49:02;;;;;;;;;;;3.20;1.00;;;;;;5052653;28;19913;-66
2021/10/11 02:51:27;;;;;;;;;;;3.20;1.00;;;;;;5051404;28;20281;-67
2021/10/11 02:53:53;;;;;;;;;;;3.20;1.00;;;;;;5051823;28;19966;-66
2021/10/11 02:56:19;;;;;;;;;;;3.20;1.00;;;;;;5050626;28;19980;-66
2021/10/11 02:58:45;;;;;;;;;;;3.10;1.00;;;;;;5052174;28;19913;-66
2021/10/11 03:01:10;;;;;;;;;;;3.10;1.00;;;;;;5051438;28;19960;-67
2021/10/11 03:03:36;;;;;;;;;;;3.00;1.00;;;;;;5051689;28;19909;-66
2021/10/11 03:06:01;;;;;;;;;;;2.90;1.00;;;;;;5051600;28;20411;-67
2021/10/11 03:08:27;;;;;;;;;;;2.80;1.00;;;;;;5052425;28;19909;-66
2021/10/11 03:10:53;;;;;;;;;;;2.80;1.00;;;;;;5051791;28;19912;-66
2021/10/11 03:13:18;;;;;;;;;;;2.80;1.00;;;;;;5049360;28;19913;-66
2021/10/11 03:15:44;;;;;;;;;;;2.90;1.00;;;;;;5052052;28;19967;-66
2021/10/11 03:18:09;;;;;;;;;;;2.80;1.00;;;;;;5051672;28;19913;-66
2021/10/11 03:20:35;;;;;;;;;;;2.80;1.00;;;;;;5051720;28;19909;-66
2021/10/11 03:23:00;;;;;;;;;;;2.70;1.00;;;;;;5050314;28;20023;-66
2021/10/11 03:25:26;;;;;;;;;;;2.70;1.00;;;;;;5051659;28;19909;-65
2021/10/11 03:27:51;;;;;;;;;;;2.60;1.00;;;;;;5045341;28;19974;-66
2021/10/11 03:30:16;;;;;;;;;;;2.60;1.00;;;;;;5032047;28;20413;-66
2021/10/11 03:32:42;;;;;;;;;;;2.50;1.00;;;;;;5030648;28;19920;-66
2021/10/11 03:35:07;;;;;;;;;;;2.50;1.00;;;;;;5031509;28;19976;-65
2021/10/11 03:37:33;;;;;;;;;;;2.50;1.00;;;;;;5040854;28;19908;-66
2021/10/11 03:39:59;;;;;;;;;;;2.50;1.00;;;;;;5051744;28;19912;-66
2021/10/11 03:42:24;;;;;;;;;;;2.40;1.00;;;;;;5047993;28;19919;-66
2021/10/11 03:44:49;;;;;;;;;;;2.40;1.00;;;;;;5051152;28;20307;-66
2021/10/11 03:47:15;;;;;;;;;;;2.40;1.00;;;;;;5050543;28;20259;-66
2021/10/11 03:49:40;;;;;;;;;;;2.40;1.00;;;;;;5051026;28;19913;-66
2021/10/11 03:52:06;;;;;;;;;;;2.30;1.00;;;;;;5050254;28;19985;-66
2021/10/11 03:54:31;;;;;;;;;;;2.30;1.00;;;;;;5051355;28;20016;-66
2021/10/11 03:56:57;;;;;;;;;;;2.30;1.00;;;;;;5049655;28;20034;-67
2021/10/11 03:59:22;;;;;;;;;;;2.30;1.00;;;;;;5050956;28;19913;-66
2021/10/11 04:01:48;;;;;;;;;;;2.30;1.00;;;;;;5050042;28;19917;-67
2021/10/11 04:04:13;;;;;;;;;;;2.30;1.00;;;;;;5051018;28;20336;-66
2021/10/11 04:06:39;;;;;;;;;;;2.30;1.00;;;;;;5050616;28;19919;-66
2021/10/11 04:09:05;;;;;;;;;;;2.30;1.00;;;;;;5051325;28;20011;-66
2021/10/11 04:11:32;;;;;;;;;;;2.30;1.00;;;;;;5049352;28;20233;-66
2021/10/11 04:13:57;;;;;;;;;;;2.30;1.00;;;;;;5050731;28;19913;-66
2021/10/11 04:16:23;;;;;;;;;;;2.30;1.00;;;;;;5050660;28;19986;-66
2021/10/11 04:18:48;;;;;;;;;;;2.40;1.00;;;;;;5050667;28;20254;-66
2021/10/11 04:21:14;;;;;;;;;;;2.30;1.00;;;;;;5049882;28;20011;-67
2021/10/11 04:23:40;;;;;;;;;;;2.30;1.00;;;;;;5050244;28;19928;-66
2021/10/11 04:26:05;;;;;;;;;;;2.30;1.00;;;;;;5045348;28;19916;-66
2021/10/11 04:28:31;;;;;;;;;;;2.20;1.00;;;;;;5038902;28;19910;-66
2021/10/11 04:30:56;;;;;;;;;;;2.20;1.00;;;;;;5030177;28;19916;-66
2021/10/11 04:33:23;;;;;;;;;;;2.10;1.00;;;;;;5027196;28;19913;-67
2021/10/11 04:35:49;;;;;;;;;;;2.10;1.00;;;;;;5028461;28;19974;-66
2021/10/11 04:38:15;;;;;;;;;;;2.10;1.00;;;;;;5043067;28;20599;-66
2021/10/11 04:40:40;;;;;;;;;;;2.10;1.00;;;;;;5047935;28;19912;-66
2021/10/11 04:43:06;;;;;;;;;;;2.10;1.00;;;;;;5045666;28;20377;-66
2021/10/11 04:45:33;;;;;;;;;;;2.10;1.00;;;;;;5047640;28;19923;-66
2021/10/11 04:47:59;;;;;;;;;;;2.20;1.00;;;;;;5047625;28;19924;-66
2021/10/11 04:50:25;;;;;;;;;;;2.20;1.00;;;;;;5047632;28;19974;-67
2021/10/11 04:52:51;;;;;;;;;;;2.30;1.00;;;;;;5046677;28;19916;-67
2021/10/11 04:55:17;;;;;;;;;;;2.30;1.00;;;;;;5047681;28;19913;-66
2021/10/11 04:57:42;;;;;;;;;;;2.30;1.00;;;;;;5045667;28;20392;-67
2021/10/11 05:00:08;;;;;;;;;;;2.40;1.00;;;;;;5047971;28;20333;-67
2021/10/11 05:02:33;;;;;;;;;;;2.50;1.00;;;;;;5045762;28;19928;-67
2021/10/11 05:04:59;;;;;;;;;;;2.50;1.00;;;;;;5045828;28;20086;-67
2021/10/11 05:07:24;;;;;;;;;;;2.60;1.00;;;;;;5046813;28;19915;-67
2021/10/11 05:09:50;;;;;;;;;;;2.60;1.00;;;;;;5046889;28;20015;-67
2021/10/11 05:12:15;;;;;;;;;;;2.70;1.00;;;;;;5037005;28;20003;-69
2021/10/11 05:14:41;;;;;;;;;;;2.80;1.00;;;;;;5043837;28;20326;-66
2021/10/11 05:17:07;;;;;;;;;;;2.80;1.00;;;;;;5046806;28;19944;-67
2021/10/11 05:19:32;;;;;;;;;;;2.90;1.00;;;;;;5046801;28;19912;-68
2021/10/11 05:21:58;;;;;;;;;;;2.90;1.00;;;;;;5046324;28;19925;-69
2021/10/11 05:24:24;;;;;;;;;;;2.90;1.00;;;;;;5047087;28;19916;-68
2021/10/11 05:26:54;;;;;;;;;;;3.00;1.00;;;;;;5045288;28;19915;-67
2021/10/11 05:29:20;;;;;;;;;;;3.00;1.00;;;;;;5047390;28;19909;-66
2021/10/11 05:31:46;;;;;;;;;;;3.10;1.00;;;;;;5046223;28;19963;-67
2021/10/11 05:34:12;;;;;;;;;;;3.10;1.00;;;;;;5046719;28;19913;-67
2021/10/11 05:36:37;;;;;;;;;;;3.20;1.00;;;;;;5046609;28;20011;-68
2021/10/11 05:39:03;;;;;;;;;;;3.20;1.00;;;;;;5046070;28;19917;-69
2021/10/11 05:41:28;;;;;;;;;;;3.30;1.00;;;;;;5044743;28;19993;-66
2021/10/11 05:43:54;;;;;;;;;;;3.40;1.00;;;;;;5045597;28;19921;-67
2021/10/11 05:46:19;;;;;;;;;;;3.40;1.00;;;;;;5046544;28;19917;-67
2021/10/11 05:48:45;;;;;;;;;;;3.40;1.00;;;;;;5046649;28;19936;-66
2021/10/11 05:51:10;;;;;;;;;;;3.50;1.00;;;;;;5046011;28;19924;-67
2021/10/11 05:53:36;;;;;;;;;;;3.60;1.00;;;;;;5045625;28;19909;-68
2021/10/11 05:56:01;;;;;;;;;;;3.60;1.00;;;;;;5044947;28;19908;-69
2021/10/11 05:58:27;;;;;;;;;;;3.70;1.00;;;;;;5045777;28;20485;-68
2021/10/11 06:00:52;;;;;;;;;;;3.70;1.00;;;;;;5046286;28;19939;-67
2021/10/11 06:03:18;;;;;;;;;;;3.70;1.00;;;;;;5045527;28;20037;-64
2021/10/11 06:05:43;;;;;;;;;;;3.70;1.00;;;;;;5046035;28;19923;-65
2021/10/11 06:08:09;;;;;;;;;;;3.70;1.00;;;;;;5045595;28;20019;-66
2021/10/11 06:10:35;;;;;;;;;;;3.80;1.00;;;;;;5046311;28;20278;-67
2021/10/11 06:13:01;;;;;;;;;;;3.80;1.00;;;;;;5044061;28;19912;-67
2021/10/11 06:15:26;;;;;;;;;;;3.80;1.00;;;;;;5046614;28;20307;-69
2021/10/11 06:17:52;;;;;;;;;;;3.80;1.00;;;;;;5045063;28;20338;-67
2021/10/11 06:20:17;;;;;;;;;;;3.80;1.00;;;;;;5045603;28;20342;-70
2021/10/11 06:22:43;;;;;;;;;;;3.90;1.00;;;;;;5045130;28;19917;-67
2021/10/11 06:25:08;;;;;;;;;;;4.00;99.90;;;;;;5046127;28;20561;-71
2021/10/11 06:27:34;;;;;;;;;;;4.10;99.90;;;;;;5042759;28;19939;-66
2021/10/11 06:29:59;;;;;;;;;;;4.20;99.90;;;;;;5027698;28;19919;-67
2021/10/11 06:32:25;;;;;;;;;;;4.30;99.90;;;;;;5026281;28;19913;-66
2021/10/11 06:34:50;;;;;;;;;;;4.50;1.00;;;;;;5029437;28;19921;-68
2021/10/11 06:37:16;;;;;;;;;;;5.30;1.00;;;;;;5035727;28;20437;-66
2021/10/11 06:39:41;;;;;;;;;;;7.00;1.00;;;;;;5047674;28;19915;-66
2021/10/11 06:42:07;;;;;;;;;;;8.80;1.00;;;;;;5044226;28;19924;-66
2021/10/11 06:44:32;;;;;;;;;;;10.20;1.00;;;;;;5048897;28;19920;-67
2021/10/11 06:46:58;;;;;;;;;;;11.80;99.90;;;;;;5048415;28;20326;-68
2021/10/11 06:49:24;;;;;;;;;;;13.40;99.90;;;;;;5049636;28;20000;-67
2021/10/11 06:51:50;;;;;;;;;;;14.90;99.90;;;;;;5028463;28;19916;-67
2021/10/11 06:54:15;;;;;;;;;;;16.40;99.90;;;;;;5032568;28;20423;-66
2021/10/11 06:56:41;;;;;;;;;;;17.50;99.90;;;;;;5047644;28;20443;-66
2021/10/11 06:59:09;;;;;;;;;;;18.80;99.90;;;;;;5049407;28;19909;-66
2021/10/11 07:01:35;;;;;;;;;;;19.90;99.90;;;;;;5048512;28;19913;-65
2021/10/11 07:04:01;;;;;;;;;;;20.80;99.90;;;;;;5049217;28;19915;-66
2021/10/11 07:06:27;;;;;;;;;;;21.40;99.90;;;;;;5048836;28;19975;-66
2021/10/11 07:08:52;;;;;;;;;;;21.40;99.90;;;;;;5049629;28;19920;-66
2021/10/11 07:11:18;;;;;;;;;;;21.90;99.90;;;;;;5048220;28;20014;-68
2021/10/11 07:13:44;;;;;;;;;;;21.80;99.90;;;;;;5049020;28;19932;-67
2021/10/11 07:16:10;;;;;;;;;;;22.40;99.90;;;;;;5047938;28;20273;-67
2021/10/11 07:18:37;;;;;;;;;;;22.70;99.90;;;;;;5051808;28;19908;-67
2021/10/11 07:21:04;;;;;;;;;;;24.00;99.90;;;;;;5032252;28;19952;-68
2021/10/11 07:23:30;;;;;;;;;;;25.00;99.90;;;;;;5033345;28;20083;-65
2021/10/11 07:25:56;;;;;;;;;;;25.40;99.90;;;;;;5052193;28;19943;-69
2021/10/11 07:28:21;;;;;;;;;;;26.10;99.90;;;;;;5042203;28;19909;-65
2021/10/11 07:30:47;;;;;;;;;;;27.00;99.90;;;;;;5032290;28;19967;-67
2021/10/11 07:33:12;;;;;;;;;;;27.20;99.90;;;;;;5032221;28;19967;-65
2021/10/11 07:35:39;;;;;;;;;;;27.20;99.90;;;;;;5032766;28;19909;-64
2021/10/11 07:38:05;;;;;;;;;;;26.90;99.90;;;;;;5046071;28;19909;-65
2021/10/11 07:40:31;;;;;;;;;;;27.60;99.90;;;;;;5052185;28;19920;-64
2021/10/11 07:42:56;;;;;;;;;;;26.80;99.90;;;;;;5049832;28;19978;-65
2021/10/11 07:45:22;;;;;;;;;;;27.20;99.90;;;;;;5051260;28;20298;-65
2021/10/11 07:47:48;;;;;;;;;;;28.70;99.90;;;;;;5051389;28;20318;-67
2021/10/11 07:50:14;;;;;;;;;;;28.70;99.90;;;;;;5052139;28;19909;-66
2021/10/11 07:52:39;;;;;;;;;;;29.50;99.90;;;;;;5050768;28;20282;-68
2021/10/11 07:55:05;;;;;;;;;;;30.50;96.60;;;;;;5051941;28;19928;-69
2021/10/11 07:57:33;;;;;;;;;;;29.60;90.20;;;;;;5050168;28;19909;-67
2021/10/11 08:00:09;;;;;;;;;;;30.90;83.00;;;;;;5051960;28;19913;-66
2021/10/11 08:02:35;;;;;;;;;;;31.20;79.00;;;;;;5050642;28;20618;-67
2021/10/11 08:05:00;;;;;;;;;;;32.10;63.10;;;;;;5051612;28;19919;-67
2021/10/11 08:07:26;;;;;;;;;;;33.00;56.50;;;;;;5051136;28;19987;-67
2021/10/11 08:09:51;;;;;;;;;;;33.70;49.70;;;;;;5051562;28;19909;-68
2021/10/11 08:12:17;;;;;;;;;;;34.40;43.20;;;;;;5048966;28;19958;-66
2021/10/11 08:14:44;;;;;;;;;;;34.90;36.60;;;;;;5050374;28;19948;-67
2021/10/11 08:17:10;;;;;;;;;;;35.50;30.50;;;;;;5050127;28;20837;-68
2021/10/11 08:19:35;;;;;;;;;;;36.10;25.80;;;;;;5050550;28;19948;-67
2021/10/11 08:22:01;;;;;;;;;;;36.70;20.80;;;;;;5046792;28;19923;-67
2021/10/11 08:24:26;;;;;;;;;;;37.40;17.00;;;;;;5049832;28;20229;-67
2021/10/11 08:26:52;;;;;;;;;;;37.90;12.00;;;;;;5048724;28;20129;-67
2021/10/11 08:29:18;;;;;;;;;;;38.40;7.70;;;;;;5047414;28;19916;-67
2021/10/11 08:31:44;;;;;;;;;;;38.10;3.30;;;;;;5040721;28;20012;-67
2021/10/11 08:34:09;;;;;;;;;;;38.80;1.00;;;;;;5031080;28;19984;-67
2021/10/11 08:36:35;;;;;;;;;;;39.10;1.00;;;;;;5031764;28;19987;-67
2021/10/11 08:39:00;;;;;;;;;;;39.00;1.00;;;;;;5050390;28;19909;-67
2021/10/11 08:41:26;;;;;;;;;;;39.30;1.00;;;;;;5046071;28;20364;-68
2021/10/11 08:43:51;;;;;;;;;;;39.40;1.00;;;;;;5050377;28;20323;-67
2021/10/11 08:46:17;;;;;;;;;;;39.10;1.00;;;;;;5049980;28;20448;-68
2021/10/11 08:48:42;;;;;;;;;;;38.30;1.00;;;;;;5050722;28;19970;-67
2021/10/11 08:51:08;;;;;;;;;;;37.10;1.00;;;;;;5050310;28;19946;-65
2021/10/11 08:53:34;;;;;;;;;;;36.40;1.00;;;;;;5049749;28;20011;-66
2021/10/11 08:56:00;;;;;;;;;;;35.60;1.00;;;;;;5048136;28;20334;-68
2021/10/11 08:58:26;;;;;;;;;;;34.70;1.00;;;;;;5049913;28;19961;-66
2021/10/11 09:00:51;;;;;;;;;;;34.80;1.00;;;;;;5050407;28;19909;-69
2021/10/11 09:03:18;;;;;;;;;;;34.70;1.00;;;;;;5049366;28;19913;-66
2021/10/11 09:05:47;;;;;;;;;;;34.90;1.00;;;;;;5050464;28;20008;-67
2021/10/11 09:08:16;;;;;;;;;;;35.80;1.00;;;;;;5050156;28;19912;-66
2021/10/11 09:10:56;;;;;;;;;;;36.30;1.00;;;;;;5050166;28;19916;-68
2021/10/11 09:13:27;;;;;;;;;;;36.60;1.00;;;;;;5048179;28;19960;-68
2021/10/11 09:16:08;;;;;;;;;;;36.60;1.00;;;;;;5049821;28;19916;-66
2021/10/11 09:18:36;;;;;;;;;;;37.00;1.00;;;;;;5050740;28;20322;-67
2021/10/11 09:21:01;;;;;;;;;;;37.70;1.00;;;;;;5049488;28;19915;-66
2021/10/11 09:23:30;;;;;;;;;;;36.50;1.00;;;;;;5049483;28;20003;-66
2021/10/11 09:25:56;;;;;;;;;;;36.80;1.00;;;;;;5050075;28;19909;-66
2021/10/11 09:28:22;;;;;;;;;;;37.00;1.00;;;;;;5039497;28;19916;-65
2021/10/11 09:30:48;;;;;;;;;;;36.60;1.00;;;;;;5030169;28;19913;-65
2021/10/11 09:33:16;;;;;;;;;;;36.40;1.00;;;;;;5040549;28;19952;-66
2021/10/11 09:35:42;;;;;;;;;;;36.40;1.00;;;;;;5049510;28;20336;-66
2021/10/11 09:38:21;;;;;;;;;;;35.80;1.00;;;;;;5049165;28;20388;-66
2021/10/11 09:40:47;;;;;;;;;;;34.90;1.00;;;;;;5049173;28;19974;-66
2021/10/11 09:43:14;;;;;;;;;;;34.10;1.00;;;;;;5047286;28;20358;-67
2021/10/11 09:45:39;;;;;;;;;;;34.80;1.00;;;;;;5047088;28;19925;-66
2021/10/11 09:48:06;;;;;;;;;;;35.00;1.00;;;;;;5041449;28;19966;-67
2021/10/11 09:50:32;;;;;;;;;;;34.70;1.00;;;;;;5049656;28;19948;-66
2021/10/11 09:52:57;;;;;;;;;;;34.20;1.00;;;;;;5048420;28;19956;-66
2021/10/11 09:55:23;;;;;;;;;;;33.00;1.00;;;;;;5049357;28;19963;-66
2021/10/11 09:57:48;;;;;;;;;;;32.30;1.00;;;;;;5048275;28;19915;-67
2021/10/11 10:00:14;;;;;;;;;;;31.90;1.00;;;;;;5049695;28;19909;-67
2021/10/11 10:02:41;;;;;;;;;;;31.80;1.00;;;;;;5048009;28;20000;-68
2021/10/11 10:05:08;;;;;;;;;;;31.70;1.00;;;;;;5048810;28;19913;-67
2021/10/11 10:07:35;;;;;;;;;;;31.90;1.00;;;;;;5038747;28;19944;-67
2021/10/11 10:10:05;;;;;;;;;;;31.70;1.00;;;;;;5029428;28;20369;-66
2021/10/11 10:12:32;;;;;;;;;;;31.20;1.00;;;;;;5027045;28;19920;-66
2021/10/11 10:14:59;;;;;;;;;;;30.90;1.00;;;;;;5036722;28;19946;-66
2021/10/11 10:17:44;;;;;;;;;;;30.10;1.00;;;;;;5048254;28;19915;-67
2021/10/11 10:20:11;;;;;;;;;;;29.70;1.00;;;;;;5029385;28;19967;-66
2021/10/11 10:22:37;;;;;;;;;;;29.30;1.00;;;;;;5028021;28;19909;-66
2021/10/11 10:25:03;;;;;;;;;;;29.00;1.00;;;;;;5043261;28;20429;-67
2021/10/11 10:27:33;;;;;;;;;;;29.10;1.00;;;;;;5046961;28;20015;-66
2021/10/11 10:29:59;;;;;;;;;;;28.60;1.00;;;;;;5049280;28;20637;-66
2021/10/11 10:32:24;;;;;;;;;;;28.30;1.00;;;;;;5048382;28;19913;-66
2021/10/11 10:35:00;;;;;;;;;;;27.90;1.00;;;;;;5049546;28;20443;-65
2021/10/11 10:37:35;;;;;;;;;;;27.00;1.00;;;;;;5047959;28;19915;-66
2021/10/11 10:40:10;;;;;;;;;;;27.10;1.00;;;;;;5049182;28;19913;-68
2021/10/11 10:42:36;;;;;;;;;;;26.90;1.00;;;;;;5046446;28;19931;-66
2021/10/11 10:45:02;;;;;;;;;;;26.30;1.00;;;;;;5049449;28;19979;-66
2021/10/11 10:47:32;;;;;;;;;;;26.40;1.00;;;;;;5048364;28;20337;-67
2021/10/11 10:49:58;;;;;;;;;;;26.20;1.00;;;;;;5048832;28;19950;-66
2021/10/11 10:52:23;;;;;;;;;;;26.30;1.00;;;;;;5049051;28;20064;-66
2021/10/11 10:54:51;;;;;;;;;;;26.50;1.00;;;;;;5052359;28;20000;-67
2021/10/11 10:57:18;;;;;;;;;;;26.80;1.00;;;;;;5051245;28;19916;-68
2021/10/11 10:59:54;;;;;;;;;;;26.80;1.00;;;;;;5050937;28;19909;-67
2021/10/11 11:02:20;;;;;;;;;;;26.60;1.00;;;;;;5052181;28;19909;-66
2021/10/11 11:04:58;;;;;;;;;;;26.60;1.00;;;;;;5052608;28;19931;-65
2021/10/11 11:07:31;;;;;;;;;;;26.60;1.00;;;;;;5049748;28;20333;-67
2021/10/11 11:09:58;;;;;;;;;;;26.30;1.00;;;;;;5052717;28;19924;-67
2021/10/11 11:12:34;;;;;;;;;;;25.80;1.00;;;;;;5050020;28;19923;-66
2021/10/11 11:15:02;;;;;;;;;;;25.70;1.00;;;;;;5052819;28;19934;-66
2021/10/11 11:17:28;;;;;;;;;;;25.60;1.00;;;;;;5051464;28;19916;-67
2021/10/11 11:19:54;;;;;;;;;;;25.30;1.00;;;;;;5051932;28;19932;-66
2021/10/11 11:22:30;;;;;;;;;;;25.20;1.00;;;;;;5051205;28;19909;-67
2021/10/11 11:25:00;;;;;;;;;;;25.60;1.00;;;;;;5052300;28;19913;-66
2021/10/11 11:27:27;;;;;;;;;;;25.60;1.00;;;;;;5049769;28;19932;-67
2021/10/11 11:29:56;;;;;;;;;;;25.50;1.00;;;;;;5050641;28;19913;-66
2021/10/11 11:32:22;;;;;;;;;;;25.30;1.00;;;;;;5050741;28;19913;-68
2021/10/11 11:34:48;;;;;;;;;;;25.10;1.00;;;;;;5052431;28;20360;-65
2021/10/11 11:37:13;;;;;;;;;;;25.10;1.00;;;;;;5051652;28;19909;-66
2021/10/11 11:39:39;;;;;;;;;;;24.90;1.00;;;;;;5052291;28;20011;-65
2021/10/11 11:42:05;;;;;;;;;;;24.70;1.00;;;;;;5049140;28;19917;-68
2021/10/11 11:44:31;;;;;;;;;;;24.50;1.00;;;;;;5050839;28;20351;-68
2021/10/11 11:47:07;;;;;;;;;;;24.30;1.00;;;;;;5051817;28;19921;-66
2021/10/11 11:49:37;;;;;;;;;;;24.20;1.00;;;;;;5050327;28;19917;-68
2021/10/11 11:52:07;;;;;;;;;;;23.80;1.00;;;;;;5050305;28;19927;-68
2021/10/11 11:54:33;;;;;;;;;;;23.50;1.00;;;;;;5051818;28;19920;-67
2021/10/11 11:56:58;;;;;;;;;;;23.50;1.00;;;;;;5049419;28;19916;-67
2021/10/11 11:59:25;;;;;;;;;;;22.80;1.00;;;;;;5051675;28;19909;-68
2021/10/11 12:01:52;;;;;;;;;;;22.50;1.00;;;;;;5050398;28;20429;-66
2021/10/11 12:04:18;;;;;;;;;;;22.20;1.00;;;;;;5050816;28;20007;-66
2021/10/11 12:06:43;;;;;;;;;;;22.20;1.00;;;;;;5050991;28;20012;-67
2021/10/11 12:09:10;;;;;;;;;;;21.20;1.00;;;;;;5051847;28;19909;-68
2021/10/11 12:11:37;;;;;;;;;;;21.30;1.00;;;;;;5049123;28;19920;-66
2021/10/11 12:14:02;;;;;;;;;;;21.70;1.00;;;;;;5050628;28;20315;-68
2021/10/11 12:16:28;;;;;;;;;;;22.20;1.00;;;;;;5050802;28;20018;-67
2021/10/11 12:18:55;;;;;;;;;;;22.50;1.00;;;;;;5051727;28;20325;-66
2021/10/11 12:21:21;;;;;;;;;;;22.70;1.00;;;;;;5051194;28;19928;-66
2021/10/11 12:23:47;;;;;;;;;;;22.80;1.00;;;;;;5050863;28;20253;-66
2021/10/11 12:26:15;;;;;;;;;;;23.00;1.00;;;;;;5049852;28;19920;-66
2021/10/11 12:28:50;;;;;;;;;;;23.10;1.00;;;;;;5037897;28;20378;-66
2021/10/11 12:31:19;;;;;;;;;;;23.20;1.00;;;;;;5029550;28;19917;-67
2021/10/11 12:33:47;;;;;;;;;;;23.00;1.00;;;;;;5030740;28;19909;-69
2021/10/11 12:36:13;;;;;;;;;;;22.60;1.00;;;;;;5030716;28;20665;-67
2021/10/11 12:38:40;;;;;;;;;;;22.40;1.00;;;;;;5049698;28;19952;-68
2021/10/11 12:41:16;;;;;;;;;;;22.30;1.00;;;;;;5049789;28;19974;-66
2021/10/11 12:43:55;;;;;;;;;;;22.30;1.00;;;;;;5048563;28;19909;-67
2021/10/11 12:46:20;;;;;;;;;;;22.30;1.00;;;;;;5049868;28;19917;-68
2021/10/11 12:48:51;;;;;;;;;;;22.20;1.00;;;;;;5051190;28;19962;-67
2021/10/11 12:51:27;;;;;;;;;;;22.20;1.00;;;;;;5050362;28;20310;-68
2021/10/11 12:54:03;;;;;;;;;;;22.20;1.00;;;;;;5050127;28;19935;-69
2021/10/11 12:56:28;;;;;;;;;;;22.20;1.00;;;;;;5048529;28;19913;-68
2021/10/11 12:58:58;;;;;;;;;;;22.00;1.00;;;;;;5051086;28;19913;-67
2021/10/11 13:01:23;;;;;;;;;;;21.90;1.00;;;;;;5050031;28;19913;-67
2021/10/11 13:03:49;;;;;;;;;;;21.80;1.00;;;;;;5050009;28;19909;-67
2021/10/11 13:06:21;;;;;;;;;;;21.10;1.00;;;;;;5049910;28;20356;-67
2021/10/11 13:08:47;;;;;;;;;;;21.00;1.00;;;;;;5050489;28;19908;-68
2021/10/11 13:11:12;;;;;;;;;;;21.00;1.00;;;;;;5048905;28;19917;-67
2021/10/11 13:13:38;;;;;;;;;;;21.00;1.00;;;;;;5049130;28;20381;-68
2021/10/11 13:16:03;;;;;;;;;;;20.90;1.70;;;;;;5048407;28;19967;-68
2021/10/11 13:18:29;;;;;;;;;;;20.90;2.40;;;;;;5050057;28;19913;-67
2021/10/11 13:20:55;;;;;;;;;;;20.90;3.00;;;;;;5050082;28;19960;-67
2021/10/11 13:23:20;;;;;;;;;;;20.60;3.10;;;;;;5049381;28;19912;-67
2021/10/11 13:25:46;;;;;;;;;;;20.30;3.10;;;;;;5030075;28;20050;-68
2021/10/11 13:28:12;;;;;;;;;;;19.90;3.00;;;;;;5035702;28;19999;-68
2021/10/11 14:27:42;;;;;;;;;;;18.10;11.50;;;;;;5047563;28;19923;-68
2021/10/11 16:02:28;;;;;;;;;;;14.70;38.80;;;;;;5049318;28;19934;-68
2021/10/11 16:04:54;;;;;;;;;;;14.60;40.50;;;;;;5048528;28;19909;-67
2021/10/11 16:07:19;;;;;;;;;;;14.50;43.00;;;;;;5048750;28;19916;-68
2021/10/11 16:09:45;;;;;;;;;;;14.50;45.90;;;;;;5050135;28;20534;-68
2021/10/11 16:12:10;;;;;;;;;;;14.40;46.90;;;;;;5047439;28;19924;-68
2021/10/11 16:14:36;;;;;;;;;;;14.30;49.50;;;;;;5050838;28;19913;-66
2021/10/11 16:17:02;;;;;;;;;;;14.30;51.70;;;;;;5050101;28;20002;-68
2021/10/11 16:19:27;;;;;;;;;;;14.20;55.10;;;;;;5050043;28;19918;-68
2021/10/11 16:21:53;;;;;;;;;;;14.10;58.70;;;;;;5049207;28;20312;-68
2021/10/11 16:24:19;;;;;;;;;;;14.00;61.70;;;;;;5047561;28;19909;-67
2021/10/11 16:26:47;;;;;;;;;;;13.90;66.50;;;;;;5046522;28;20034;-68
2021/10/11 16:29:13;;;;;;;;;;;13.90;71.80;;;;;;5049781;28;20277;-67
2021/10/11 16:31:38;;;;;;;;;;;13.80;77.40;;;;;;5049522;28;19916;-66
2021/10/11 16:34:04;;;;;;;;;;;13.70;82.90;;;;;;5049229;28;19916;-69
2021/10/11 16:36:29;;;;;;;;;;;13.70;89.30;;;;;;5049078;28;20336;-69
2021/10/11 16:38:55;;;;;;;;;;;13.60;92.20;;;;;;5050844;28;19962;-67
2021/10/11 16:41:20;;;;;;;;;;;13.50;94.90;;;;;;5049063;28;20027;-65
2021/10/11 16:43:46;;;;;;;;;;;13.50;97.90;;;;;;5049522;28;19919;-68
2021/10/11 16:46:12;;;;;;;;;;;13.40;99.90;;;;;;5050136;28;19921;-69
2021/10/11 16:48:38;;;;;;;;;;;13.40;99.90;;;;;;5050551;28;20221;-68
2021/10/11 16:51:04;;;;;;;;;;;13.30;99.90;;;;;;5049435;28;20330;-68
2021/10/11 16:56:14;;;;;;;;;;;13.30;99.90;;;;;;5049506;28;19919;-66
2021/10/11 16:58:39;;;;;;;;;;;13.20;99.90;;;;;;5049863;28;20290;-67